Flight Track Log - Related Links

Times and Time Zones

All times are in EDT time to prevent confusion due to time zone crossing. See the SWA1287 flight status page for this flight to view local times or setup timezone preferences in your user account.

Time Position Orientation Groundspeed Altitude Reporting Facility
EDT Latitude Longitude Course Direction KTS MPH feet Rate Location/Type
Tue 01:10:56 AM 37.3942 -121.9614 138° Southeast 174 200 2,600  Level Oakland Center
Tue 01:11:57 AM 37.4397 -121.9536 North 199 229 4,300 1,180 Climbing Oakland Center
Tue 01:12:58 AM 37.3986 -121.8803 125° Southeast 221 254 5,000 1,721 Climbing Oakland Center
Tue 01:13:59 AM 37.3519 -121.8283 138° Southeast 224 258 7,800 2,876 Climbing Oakland Center
Tue 01:14:59 AM 37.2972 -121.7692 139° Southeast 255 293 10,800 3,322 Climbing Oakland Center
Tue 01:16:00 AM 36.9280 -121.4583 138° Southeast  Level Estimated
Tue 01:16:00 AM 37.2275 -121.6886 137° Southeast 321 369 14,500  Level Oakland Center
Tue 01:17:01 AM 37.1569 -121.6100 138° Southeast 337 388 18,600 3,836 Climbing Oakland Center
Tue 01:18:02 AM 37.0800 -121.5242 138° Southeast 354 407 22,300 3,295 Climbing Oakland Center
Tue 01:19:03 AM 37.0017 -121.4364 138° Southeast 371 427 25,300 2,803 Climbing Oakland Center
Tue 01:20:04 AM 36.9197 -121.3464 139° Southeast 389 448 28,000 2,508 Climbing Oakland Center
Tue 01:21:05 AM 36.8339 -121.2522 139° Southeast 407 468 30,400 2,628 Climbing Oakland Center
Tue 01:22:05 AM 36.7467 -121.1603 140° Southeast 412 474 33,300 2,926 Climbing Oakland Center
Tue 01:23:06 AM 36.7083 -121.0289 110° East 407 468 36,300 2,656 Climbing Oakland Center
Tue 01:24:07 AM 36.7019 -120.8989 93° East 386 444 38,700 1,328 Climbing Oakland Center
Tue 01:25:08 AM 36.6889 -120.7650 97° East 397 457 39,000 148 Climbing Oakland Center
Tue 01:26:09 AM 36.5975 -120.6928 148° Southeast 389 448 39,000  Level Oakland Center
Tue 01:27:09 AM 36.5031 -120.6189 148° Southeast 398 458 39,000  Level Oakland Center
Tue 01:28:10 AM 36.3908 -120.5325 148° Southeast 396 456 39,000  Level Oakland Center
Tue 01:29:11 AM 36.2956 -120.4628 149° Southeast 396 456 39,000  Level Oakland Center
Tue 01:30:12 AM 36.2011 -120.3917 149° Southeast 396 456 39,000  Level Oakland Center
Tue 01:31:12 AM 36.1064 -120.3189 148° Southeast 397 457 39,000  Level Oakland Center
Tue 01:32:13 AM 36.0103 -120.2461 149° Southeast 402 463 39,000  Level Oakland Center
Tue 01:33:14 AM 35.9158 -120.1739 148° Southeast 400 460 39,000  Level Oakland Center
Tue 01:34:15 AM 35.8192 -120.1028 149° Southeast 402 463 39,000  Level Oakland Center
Tue 01:35:15 AM 35.7228 -120.0325 149° Southeast 402 463 39,000  Level Oakland Center
Tue 01:36:16 AM 35.6281 -119.9589 148° Southeast 401 461 39,000  Level Oakland Center
Tue 01:37:17 AM 35.5353 -119.8797 145° Southeast 402 463 39,000  Level Oakland Center
Tue 01:38:17 AM 35.4428 -119.8011 145° Southeast 403 464 39,000  Level Oakland Center
Tue 01:39:18 AM 35.3506 -119.7219 145° Southeast 403 464 39,000 -295 Level Oakland Center
Tue 01:40:19 AM 35.2592 -119.6431 145° Southeast 402 463 38,400 -738 Descending Oakland Center
Tue 01:41:20 AM 35.1675 -119.5658 145° Southeast 400 460 37,500 -942 Descending Oakland Center
Tue 01:42:20 AM 35.0753 -119.4867 145° Southeast 403 464 36,500 -992 Descending Oakland Center
Tue 01:43:21 AM 34.9817 -119.4078 145° Southeast 408 470 35,500 -1,721 Descending Oakland Center
Tue 01:44:22 AM 34.8883 -119.3289 145° Southeast 409 471 33,000 -2,826 Descending Oakland Center
Tue 01:45:22 AM 34.7936 -119.2478 145° Southeast 411 473 29,800 -2,876 Descending Oakland Center
Tue 01:46:23 AM 34.6997 -119.1681 145° Southeast 412 474 27,200 -2,631 Descending Oakland Center
Tue 01:47:32 AM 34.5911 -119.0789 146° Southeast 394 453 24,100 -2,585 Descending Los Angeles Center
Tue 01:48:33 AM 34.5053 -119.0067 145° Southeast 372 428 21,600 -2,231 Descending Los Angeles Center
Tue 01:49:33 AM 34.4394 -118.9511 145° Southeast 363 418 19,600 -2,361 Descending Los Angeles Center
Tue 01:50:35 AM 34.3436 -118.8767 147° Southeast 338 389 16,800 -2,508 Descending Los Angeles Center
Tue 01:51:35 AM 34.2536 -118.8450 164° South 335 386 14,500 -1,537 Descending Los Angeles Center
Tue 01:52:36 AM 34.1722 -118.8150 163° South 308 354 13,700 -934 Descending Los Angeles Center
Tue 01:53:37 AM 34.1019 -118.7878 162° South 270 311 12,600 -1,377 Descending Los Angeles Center
Tue 01:54:38 AM 34.0358 -118.7358 147° Southeast 258 297 10,900 -1,279 Descending Los Angeles Center
Tue 01:55:39 AM 34.0286 -118.6531 96° East 249 287 10,000 -1,033 Descending Los Angeles Center
Tue 01:56:40 AM 34.0203 -118.5689 97° East 254 292 8,800 -1,254 Descending Los Angeles Center
Tue 01:57:53 AM 34.0111 -118.4631 96° East 258 297 7,200 -940 Descending Los Angeles Center
Tue 01:58:54 AM 34.0197 -118.3861 82° East 239 275 6,700 -694 Descending Los Angeles Center
Tue 01:59:54 AM 34.0286 -118.3092 82° East 231 266 5,800 -893 Descending Los Angeles Center
Tue 02:00:55 AM 34.0336 -118.2381 85° East 219 252 4,900 -984 Descending Los Angeles Center
Tue 02:01:56 AM 34.0078 -118.2194 149° Southeast 174 200 3,800 -1,230 Descending Los Angeles Center
Tue 02:02:57 AM 33.9836 -118.2611 235° Southwest 155 178 2,400 -1,041 Descending Los Angeles Center
Tue 02:03:57 AM 33.9633 -118.3044 241° Southwest 152 175 1,700 -694 Descending Los Angeles Center
Tue 02:04:58 AM 33.9578 -118.3494 262° West 143 165 1,000 -639 Descending Los Angeles Center
Tue 02:05:59 AM 33.9539 -118.3925 264° West 135 155 400 -446 Descending Los Angeles Center
Tue 02:06:59 AM 33.9492 -118.4311 262° West 132 152 100 -300 Descending Los Angeles Center
Tue 02:08:00 AM 33.9425 -118.4081 90° East  Level Estimated
Tue 02:15:00 AM 33.9425 -118.4081 228° Southwest  Level Estimated

Login

Don't have an account? Register now (free) for customized features, flight alerts, and more!